createdAt,value
2019-01-28T00:00:52.498Z,99.99
2019-01-28T00:01:52.460Z,99.99
2019-01-28T00:02:52.422Z,99.99
2019-01-28T00:03:52.384Z,99.99
2019-01-28T00:04:52.338Z,99.99
2019-01-28T00:05:52.308Z,99.99
2019-01-28T00:06:52.273Z,99.99
2019-01-28T00:07:52.238Z,99.99
2019-01-28T00:08:52.190Z,99.99
2019-01-28T00:09:52.154Z,99.99
2019-01-28T00:10:52.118Z,99.99
2019-01-28T00:11:52.082Z,99.99
2019-01-28T00:12:52.038Z,99.44
2019-01-28T00:13:52.004Z,99.99
2019-01-28T00:14:51.975Z,99.63
2019-01-28T00:15:51.935Z,99.63
2019-01-28T00:16:51.891Z,99.06
2019-01-28T00:17:51.854Z,99.99
2019-01-28T00:18:51.815Z,98.96
2019-01-28T00:19:51.777Z,99.63
2019-01-28T00:20:51.735Z,99.53
2019-01-28T00:21:51.708Z,99.15
2019-01-28T00:22:51.665Z,98.96
2019-01-28T00:23:51.628Z,98.96
2019-01-28T00:24:51.591Z,98.21
2019-01-28T00:25:51.559Z,98.96
2019-01-28T00:26:51.514Z,98.30
2019-01-28T00:27:51.484Z,99.44
2019-01-28T00:28:51.439Z,98.68
2019-01-28T00:29:51.405Z,98.02
2019-01-28T00:30:51.370Z,97.64
2019-01-28T00:31:51.320Z,98.39
2019-01-28T00:32:51.290Z,97.54
2019-01-28T00:33:51.246Z,98.77
2019-01-28T00:34:51.213Z,99.34
2019-01-28T00:35:51.174Z,97.83
2019-01-28T00:36:51.135Z,98.02
2019-01-28T00:37:51.104Z,97.92
2019-01-28T00:38:51.056Z,97.92
2019-01-28T00:39:51.025Z,98.96
2019-01-28T00:40:50.983Z,98.39
2019-01-28T00:41:50.952Z,97.73
2019-01-28T00:42:50.909Z,98.30
2019-01-28T00:43:50.877Z,98.30
2019-01-28T00:44:50.841Z,98.02
2019-01-28T00:45:50.791Z,98.49
2019-01-28T00:46:50.756Z,99.53
2019-01-28T00:47:50.716Z,97.92
2019-01-28T00:48:50.682Z,98.30
2019-01-28T00:49:50.649Z,97.92
2019-01-28T00:50:50.610Z,99.06
2019-01-28T00:51:50.571Z,99.15
2019-01-28T00:52:50.536Z,98.87
2019-01-28T00:53:50.489Z,98.39
2019-01-28T00:54:50.456Z,98.30
2019-01-28T00:55:50.425Z,99.53
2019-01-28T00:56:50.382Z,99.99
2019-01-28T00:57:50.345Z,99.44
2019-01-28T00:58:50.302Z,99.91
2019-01-28T00:59:50.271Z,99.53
2019-01-28T01:00:50.230Z,99.25
2019-01-28T01:01:50.197Z,99.99
2019-01-28T01:02:50.145Z,99.82
2019-01-28T01:03:50.118Z,99.99
2019-01-28T01:04:50.071Z,99.99
2019-01-28T01:05:50.032Z,99.99
2019-01-28T01:06:50.007Z,99.99
2019-01-28T01:07:49.961Z,99.99
2019-01-28T01:08:49.932Z,99.99
2019-01-28T01:09:49.887Z,99.99
2019-01-28T01:10:49.844Z,99.99
2019-01-28T01:11:49.817Z,99.99
2019-01-28T01:12:49.782Z,99.99
2019-01-28T01:13:49.737Z,99.99
2019-01-28T01:14:49.697Z,99.99
2019-01-28T01:15:49.661Z,99.99
2019-01-28T01:16:49.615Z,99.99
2019-01-28T01:17:49.583Z,99.99
2019-01-28T01:18:49.546Z,99.99
2019-01-28T01:19:49.513Z,99.99
2019-01-28T01:20:49.471Z,99.99
2019-01-28T01:21:49.432Z,99.99
2019-01-28T01:22:49.393Z,99.99
2019-01-28T01:23:49.361Z,99.99
2019-01-28T01:24:49.316Z,99.99
2019-01-28T01:25:49.279Z,99.99
2019-01-28T01:26:49.251Z,99.99
2019-01-28T01:27:49.223Z,99.99
2019-01-28T01:28:49.168Z,99.99
2019-01-28T01:29:49.130Z,99.91
2019-01-28T01:30:49.092Z,99.99
2019-01-28T01:31:49.061Z,99.63
2019-01-28T01:32:49.018Z,99.99
2019-01-28T01:33:48.976Z,99.99
2019-01-28T01:34:48.946Z,99.99
2019-01-28T01:35:48.905Z,99.91
2019-01-28T01:36:48.861Z,99.99
2019-01-28T01:37:48.826Z,99.82
2019-01-28T01:38:48.784Z,98.96
2019-01-28T01:39:48.749Z,99.99
2019-01-28T01:40:48.724Z,99.44
2019-01-28T01:41:48.677Z,99.06
2019-01-28T01:42:48.637Z,99.44
2019-01-28T01:43:48.609Z,98.82
2019-01-28T01:44:48.557Z,99.48
2019-01-28T01:45:48.520Z,99.34
2019-01-28T01:46:48.492Z,99.01
2019-01-28T01:47:48.446Z,99.48
2019-01-28T01:48:48.407Z,99.48
2019-01-28T01:49:48.372Z,99.48
2019-01-28T01:50:48.332Z,99.20
2019-01-28T01:51:48.302Z,98.91
2019-01-28T01:52:48.264Z,99.01
2019-01-28T01:53:48.228Z,99.20
2019-01-28T01:54:48.179Z,99.48
2019-01-28T01:55:48.147Z,99.20
2019-01-28T01:56:48.113Z,99.29
2019-01-28T01:57:48.070Z,98.63
2019-01-28T01:58:48.033Z,98.35
2019-01-28T01:59:47.993Z,98.82
2019-01-28T02:00:47.960Z,97.87
2019-01-28T02:01:47.917Z,97.40
2019-01-28T02:02:47.878Z,97.40
2019-01-28T02:03:47.848Z,97.11
2019-01-28T02:04:47.814Z,97.21
2019-01-28T02:05:47.770Z,97.30
2019-01-28T02:06:47.735Z,96.83
2019-01-28T02:07:47.683Z,97.21
2019-01-28T02:08:47.656Z,95.98
2019-01-28T02:09:47.610Z,97.11
2019-01-28T02:10:47.573Z,97.30
2019-01-28T02:11:47.529Z,96.17
2019-01-28T02:12:47.495Z,97.11
2019-01-28T02:13:47.459Z,96.73
2019-01-28T02:14:47.420Z,97.02
2019-01-28T02:15:47.378Z,96.17
2019-01-28T02:16:47.338Z,95.03
2019-01-28T02:17:47.304Z,95.69
2019-01-28T02:18:47.268Z,95.03
2019-01-28T02:19:47.228Z,95.41
2019-01-28T02:20:47.189Z,96.26
2019-01-28T02:21:47.152Z,95.22
2019-01-28T02:22:47.115Z,94.93
2019-01-28T02:23:47.078Z,95.69
2019-01-28T02:24:47.046Z,94.27
2019-01-28T02:25:47.020Z,94.37
2019-01-28T02:26:46.964Z,95.12
2019-01-28T02:27:46.925Z,95.41
2019-01-28T02:28:46.891Z,94.08
2019-01-28T02:29:46.841Z,94.08
2019-01-28T02:30:46.804Z,93.89
2019-01-28T02:31:46.771Z,93.61
2019-01-28T02:32:46.731Z,92.57
2019-01-28T02:33:46.695Z,92.94
2019-01-28T02:34:46.655Z,93.89
2019-01-28T02:35:46.614Z,93.23
2019-01-28T02:36:46.574Z,92.94
2019-01-28T02:37:46.540Z,93.89
2019-01-28T02:38:46.494Z,93.80
2019-01-28T02:39:46.462Z,94.46
2019-01-28T02:40:46.424Z,93.70
2019-01-28T02:41:46.391Z,95.41
2019-01-28T02:42:46.355Z,94.27
2019-01-28T02:43:46.310Z,94.37
2019-01-28T02:44:46.276Z,93.23
2019-01-28T02:45:46.230Z,94.18
2019-01-28T02:46:46.197Z,93.13
2019-01-28T02:47:46.158Z,92.19
2019-01-28T02:48:46.115Z,93.23
2019-01-28T02:49:46.086Z,94.46
2019-01-28T02:50:46.037Z,93.89
2019-01-28T02:51:46.001Z,94.74
2019-01-28T02:52:45.971Z,94.27
2019-01-28T02:53:45.926Z,93.70
2019-01-28T02:54:45.894Z,94.74
2019-01-28T02:55:45.850Z,94.37
2019-01-28T02:56:45.817Z,94.27
2019-01-28T02:57:45.771Z,93.70
2019-01-28T02:58:45.737Z,92.47
2019-01-28T02:59:45.707Z,94.08
2019-01-28T03:00:45.667Z,95.50
2019-01-28T03:01:45.623Z,94.27
2019-01-28T03:02:45.576Z,96.36
2019-01-28T03:03:45.545Z,93.80
2019-01-28T03:04:45.501Z,93.89
2019-01-28T03:05:45.460Z,93.70
2019-01-28T03:06:45.430Z,96.17
2019-01-28T03:07:45.386Z,94.84
2019-01-28T03:08:45.348Z,94.46
2019-01-28T03:09:45.322Z,96.26
2019-01-28T03:10:45.275Z,94.08
2019-01-28T03:11:45.235Z,94.46
2019-01-28T03:12:45.199Z,95.41
2019-01-28T03:13:45.152Z,93.61
2019-01-28T03:14:45.120Z,90.95
2019-01-28T03:15:45.082Z,93.04
2019-01-28T03:16:45.054Z,93.70
2019-01-28T03:17:44.992Z,92.94
2019-01-28T03:18:44.966Z,93.13
2019-01-28T03:19:44.935Z,92.85
2019-01-28T03:20:44.890Z,91.05
2019-01-28T03:21:44.849Z,91.33
2019-01-28T03:22:44.804Z,91.90
2019-01-28T03:23:44.773Z,93.32
2019-01-28T03:24:44.746Z,92.33
2019-01-28T03:25:44.692Z,92.57
2019-01-28T03:26:44.649Z,91.33
2019-01-28T03:27:44.628Z,90.29
2019-01-28T03:28:44.578Z,90.10
2019-01-28T03:29:44.537Z,91.62
2019-01-28T03:30:44.506Z,90.77
2019-01-28T03:31:44.477Z,90.53
2019-01-28T03:32:44.434Z,90.77
2019-01-28T03:33:44.397Z,90.91
2019-01-28T03:34:44.345Z,88.73
2019-01-28T03:35:44.310Z,90.34
2019-01-28T03:36:44.270Z,90.72
2019-01-28T03:37:44.233Z,89.39
2019-01-28T03:38:44.197Z,90.34
2019-01-28T03:39:44.157Z,89.68
2019-01-28T03:40:44.128Z,89.87
2019-01-28T03:41:44.074Z,88.82
2019-01-28T03:42:44.049Z,89.20
2019-01-28T03:43:44.004Z,87.98
2019-01-28T03:44:43.963Z,87.12
2019-01-28T03:45:43.930Z,89.11
2019-01-28T03:46:43.888Z,86.46
2019-01-28T03:47:43.849Z,87.12
2019-01-28T03:48:43.813Z,86.93
2019-01-28T03:49:43.773Z,87.12
2019-01-28T03:50:43.731Z,86.55
2019-01-28T03:51:43.693Z,86.83
2019-01-28T03:52:43.657Z,86.83
2019-01-28T03:53:43.614Z,85.42
2019-01-28T03:54:43.576Z,87.40
2019-01-28T03:55:43.535Z,86.08
2019-01-28T03:56:43.504Z,86.36
2019-01-28T03:57:43.464Z,86.46
2019-01-28T03:58:43.429Z,87.12
2019-01-28T03:59:43.388Z,85.70
2019-01-28T04:00:43.351Z,86.27
2019-01-28T04:01:43.315Z,85.51
2019-01-28T04:02:43.272Z,86.18
2019-01-28T04:03:43.237Z,86.65
2019-01-28T04:04:43.198Z,86.08
2019-01-28T04:05:43.155Z,89.01
2019-01-28T04:06:43.111Z,88.07
2019-01-28T04:07:43.071Z,87.02
2019-01-28T04:08:43.043Z,87.12
2019-01-28T04:09:43.013Z,86.83
2019-01-28T04:10:42.958Z,86.36
2019-01-28T04:11:42.924Z,86.08
2019-01-28T04:12:42.885Z,87.78
2019-01-28T04:13:42.844Z,87.12
2019-01-28T04:14:42.806Z,87.78
2019-01-28T04:15:42.762Z,86.65
2019-01-28T04:16:42.730Z,87.88
2019-01-28T04:17:42.688Z,87.12
2019-01-28T04:18:42.649Z,87.02
2019-01-28T04:19:42.620Z,87.78
2019-01-28T04:20:42.580Z,87.69
2019-01-28T04:21:42.545Z,86.83
2019-01-28T04:22:42.494Z,87.12
2019-01-28T04:23:42.462Z,86.55
2019-01-28T04:24:42.423Z,86.65
2019-01-28T04:25:42.386Z,86.36
2019-01-28T04:26:42.344Z,87.69
2019-01-28T04:27:42.305Z,87.31
2019-01-28T04:28:42.255Z,88.30
2019-01-28T04:29:42.225Z,89.58
2019-01-28T04:30:42.185Z,88.73
2019-01-28T04:31:42.151Z,87.88
2019-01-28T04:32:42.112Z,87.59
2019-01-28T04:33:42.070Z,88.45
2019-01-28T04:34:42.029Z,86.27
2019-01-28T04:35:41.990Z,87.45
2019-01-28T04:36:41.961Z,86.55
2019-01-28T04:37:41.921Z,85.61
2019-01-28T04:38:41.875Z,85.80
2019-01-28T04:39:41.837Z,85.99
2019-01-28T04:40:41.803Z,84.85
2019-01-28T04:41:41.758Z,85.99
2019-01-28T04:42:41.722Z,86.27
2019-01-28T04:43:41.681Z,85.99
2019-01-28T04:44:41.640Z,85.42
2019-01-28T04:45:41.617Z,84.66
2019-01-28T04:46:41.571Z,86.18
2019-01-28T04:47:41.528Z,84.56
2019-01-28T04:48:41.486Z,84.80
2019-01-28T04:50:41.428Z,86.65
2019-01-28T04:51:41.389Z,86.55
2019-01-28T04:52:41.333Z,84.70
2019-01-28T04:53:41.301Z,85.55
2019-01-28T04:54:41.266Z,84.23
2019-01-28T04:55:41.226Z,86.12
2019-01-28T04:56:41.179Z,87.26
2019-01-28T04:57:41.146Z,89.53
2019-01-28T04:58:41.100Z,90.01
2019-01-28T04:59:41.102Z,88.49
2019-01-28T05:00:41.027Z,89.34
2019-01-28T05:01:40.992Z,89.06
2019-01-28T05:02:40.957Z,90.39
2019-01-28T05:03:40.918Z,89.72
2019-01-28T05:04:40.874Z,88.96
2019-01-28T05:05:40.827Z,88.78
2019-01-28T05:06:40.797Z,88.40
2019-01-28T05:07:40.754Z,87.88
2019-01-28T05:08:40.719Z,89.06
2019-01-28T05:09:40.684Z,90.81
2019-01-28T05:10:40.638Z,88.11
2019-01-28T05:11:40.606Z,89.91
2019-01-28T05:12:40.569Z,87.92
2019-01-28T05:13:40.528Z,86.50
2019-01-28T05:14:40.484Z,87.21
2019-01-28T05:15:40.447Z,87.35
2019-01-28T05:16:40.417Z,86.83
2019-01-28T05:17:40.369Z,86.22
2019-01-28T05:18:40.339Z,86.46
2019-01-28T05:19:40.292Z,86.08
2019-01-28T05:20:40.258Z,86.27
2019-01-28T05:21:40.218Z,85.89
2019-01-28T05:22:40.182Z,86.36
2019-01-28T05:23:40.132Z,86.08
2019-01-28T05:24:40.107Z,86.46
2019-01-28T05:25:40.062Z,87.31
2019-01-28T05:26:49.438Z,85.70
2019-01-28T05:28:44.420Z,83.62
2019-01-28T05:29:44.371Z,83.71
2019-01-28T05:30:44.330Z,83.90
2019-01-28T05:31:44.293Z,82.76
2019-01-28T05:32:44.254Z,83.05
2019-01-28T05:33:44.214Z,82.39
2019-01-28T05:34:44.174Z,83.81
2019-01-28T05:35:44.135Z,82.29
2019-01-28T05:36:44.106Z,82.86
2019-01-28T05:37:44.058Z,82.95
2019-01-28T05:38:44.023Z,83.43
2019-01-28T05:39:43.987Z,84.00
2019-01-28T05:40:43.941Z,82.86
2019-01-28T05:41:43.904Z,84.85
2019-01-28T05:42:43.869Z,84.56
2019-01-28T05:43:43.822Z,82.67
2019-01-28T05:44:43.794Z,84.56
2019-01-28T05:45:43.754Z,84.75
2019-01-28T05:46:43.710Z,83.62
2019-01-28T05:47:43.674Z,82.86
2019-01-28T05:48:43.635Z,83.62
2019-01-28T05:49:43.594Z,84.19
2019-01-28T05:50:43.559Z,83.62
2019-01-28T05:51:43.544Z,82.76
2019-01-28T05:52:43.474Z,82.10
2019-01-28T05:53:43.452Z,82.20
2019-01-28T05:54:43.409Z,81.25
2019-01-28T05:55:43.364Z,83.05
2019-01-28T05:56:43.324Z,81.72
2019-01-28T05:57:43.285Z,82.95
2019-01-28T05:58:43.249Z,82.10
2019-01-28T05:59:43.231Z,81.82
2019-01-28T06:00:43.166Z,80.87
2019-01-28T06:01:43.138Z,80.30
2019-01-28T06:02:43.097Z,81.44
2019-01-28T06:03:43.052Z,81.44
2019-01-28T06:04:43.012Z,80.68
2019-01-28T06:05:42.975Z,78.88
2019-01-28T06:06:42.931Z,80.77
2019-01-28T06:07:42.905Z,78.88
2019-01-28T06:08:42.855Z,78.88
2019-01-28T06:09:42.824Z,78.88
2019-01-28T06:10:42.785Z,78.88
2019-01-28T06:11:42.751Z,77.84
2019-01-28T06:12:42.705Z,78.31
2019-01-28T06:13:42.671Z,79.55
2019-01-28T06:14:42.633Z,79.26
2019-01-28T06:15:42.591Z,77.65
2019-01-28T06:16:42.553Z,77.84
2019-01-28T06:17:42.512Z,76.23
2019-01-28T06:18:42.477Z,76.42
2019-01-28T06:19:42.432Z,77.08
2019-01-28T06:20:42.397Z,77.37
2019-01-28T06:21:42.361Z,75.28
2019-01-28T06:22:42.317Z,75.85
2019-01-28T06:23:42.277Z,75.47
2019-01-28T06:24:42.243Z,76.04
2019-01-28T06:25:42.198Z,75.38
2019-01-28T06:26:42.160Z,75.00
2019-01-28T06:27:42.118Z,76.23
2019-01-28T06:28:42.085Z,74.62
2019-01-28T06:29:42.042Z,75.00
2019-01-28T06:30:42.011Z,76.32
2019-01-28T06:31:41.962Z,75.85
2019-01-28T06:32:41.929Z,75.09
2019-01-28T06:33:41.891Z,76.42
2019-01-28T06:34:41.848Z,75.28
2019-01-28T06:35:41.815Z,74.71
2019-01-28T06:36:41.778Z,74.62
2019-01-28T06:37:41.738Z,75.47
2019-01-28T06:38:41.702Z,75.19
2019-01-28T06:39:41.657Z,75.00
2019-01-28T06:40:41.621Z,74.62
2019-01-28T06:41:41.582Z,75.38
2019-01-28T06:42:41.545Z,74.05
2019-01-28T06:43:41.506Z,75.38
2019-01-28T06:44:41.461Z,74.81
2019-01-28T06:45:41.487Z,73.20
2019-01-28T06:46:41.392Z,75.47
2019-01-28T06:47:46.627Z,75.19
2019-01-28T06:48:41.311Z,75.38
2019-01-28T06:49:41.267Z,73.86
2019-01-28T06:50:41.241Z,73.58
2019-01-28T06:51:41.193Z,74.24
2019-01-28T06:52:41.157Z,73.96
2019-01-28T06:53:41.118Z,74.05
2019-01-28T06:54:41.089Z,75.00
2019-01-28T06:55:41.043Z,73.68
2019-01-28T06:56:40.995Z,74.24
2019-01-28T06:57:40.962Z,74.90
2019-01-28T06:58:40.933Z,76.23
2019-01-28T06:59:40.888Z,73.96
2019-01-28T07:00:40.847Z,73.86
2019-01-28T07:01:40.804Z,73.11
2019-01-28T07:02:40.767Z,74.43
2019-01-28T07:03:40.724Z,73.20
2019-01-28T07:04:40.684Z,73.77
2019-01-28T07:05:40.643Z,73.20
2019-01-28T07:06:40.607Z,74.71
2019-01-28T07:07:40.574Z,75.00
2019-01-28T07:08:40.529Z,73.30
2019-01-28T07:09:40.503Z,74.24
2019-01-28T07:10:40.460Z,74.43
2019-01-28T07:11:40.428Z,74.24
2019-01-28T07:12:40.373Z,73.77
2019-01-28T07:13:40.344Z,73.11
2019-01-28T07:14:40.295Z,72.25
2019-01-28T07:15:40.267Z,71.97
2019-01-28T07:16:40.235Z,71.78
2019-01-28T07:17:40.181Z,71.88
2019-01-28T07:18:40.139Z,73.11
2019-01-28T07:19:40.100Z,73.96
2019-01-28T07:20:40.073Z,73.20
2019-01-28T07:21:40.030Z,74.24
2019-01-28T07:22:39.996Z,73.39
2019-01-28T07:23:40.016Z,73.20
2019-01-28T07:24:39.908Z,73.86
2019-01-28T07:25:39.869Z,73.86
2019-01-28T07:26:39.839Z,73.39
2019-01-28T07:27:39.795Z,74.33
2019-01-28T07:28:39.770Z,73.86
2019-01-28T07:29:39.721Z,74.15
2019-01-28T07:30:39.676Z,74.15
2019-01-28T07:31:39.639Z,73.11
2019-01-28T07:32:39.604Z,73.01
2019-01-28T07:33:39.564Z,73.20
2019-01-28T07:34:39.529Z,72.92
2019-01-28T07:35:39.485Z,72.53
2019-01-28T07:36:39.441Z,74.05
2019-01-28T07:37:39.405Z,73.39
2019-01-28T07:38:39.369Z,73.58
2019-01-28T07:39:39.331Z,72.63
2019-01-28T07:40:39.289Z,72.63
2019-01-28T07:41:39.259Z,71.97
2019-01-28T07:42:39.219Z,72.34
2019-01-28T07:43:39.176Z,73.58
2019-01-28T07:44:39.137Z,72.92
2019-01-28T07:45:44.833Z,73.96
2019-01-28T07:46:39.058Z,74.05
2019-01-28T07:47:39.011Z,73.68
2019-01-28T07:48:38.977Z,73.11
2019-01-28T07:49:38.931Z,72.25
2019-01-28T07:50:38.912Z,72.63
2019-01-28T07:51:38.871Z,71.97
2019-01-28T07:52:38.840Z,71.31
2019-01-28T07:53:38.790Z,71.78
2019-01-28T07:54:38.750Z,71.97
2019-01-28T07:55:38.711Z,72.73
2019-01-28T07:56:38.677Z,71.59
2019-01-28T07:57:38.630Z,71.69
2019-01-28T07:58:38.602Z,71.78
2019-01-28T07:59:38.554Z,72.06
2019-01-28T08:00:38.520Z,72.06
2019-01-28T08:01:38.475Z,71.02
2019-01-28T08:02:38.435Z,72.82
2019-01-28T08:03:38.402Z,71.50
2019-01-28T08:04:38.551Z,71.31
2019-01-28T08:05:38.320Z,71.69
2019-01-28T08:06:38.283Z,71.88
2019-01-28T08:07:38.247Z,71.40
2019-01-28T08:08:38.206Z,70.36
2019-01-28T08:09:38.161Z,70.45
2019-01-28T08:10:38.131Z,70.17
2019-01-28T08:11:38.092Z,71.02
2019-01-28T08:12:38.047Z,70.17
2019-01-28T08:13:38.012Z,71.78
2019-01-28T08:14:37.965Z,71.40
2019-01-28T08:15:37.936Z,71.59
2019-01-28T08:16:37.911Z,70.83
2019-01-28T08:17:37.861Z,69.79
2019-01-28T08:18:37.822Z,70.36
2019-01-28T08:19:37.782Z,70.36
2019-01-28T08:20:37.747Z,71.21
2019-01-28T08:21:37.696Z,71.78
2019-01-28T08:22:37.662Z,71.78
2019-01-28T08:23:37.617Z,71.02
2019-01-28T08:24:37.587Z,70.26
2019-01-28T08:25:37.543Z,71.21
2019-01-28T08:26:37.508Z,71.12
2019-01-28T08:27:37.473Z,70.55
2019-01-28T08:28:37.439Z,70.36
2019-01-28T08:29:37.407Z,70.36
2019-01-28T08:30:37.352Z,70.45
2019-01-28T08:31:37.319Z,70.55
2019-01-28T08:32:37.283Z,69.98
2019-01-28T08:33:37.246Z,69.79
2019-01-28T08:34:37.207Z,70.55
2019-01-28T08:35:37.171Z,71.97
2019-01-28T08:36:37.133Z,70.55
2019-01-28T08:37:37.092Z,71.97
2019-01-28T08:38:37.046Z,70.17
2019-01-28T08:39:37.003Z,71.69
2019-01-28T08:40:36.983Z,69.98
2019-01-28T08:41:36.930Z,71.88
2019-01-28T08:42:36.898Z,71.12
2019-01-28T08:43:36.852Z,70.45
2019-01-28T08:44:36.819Z,71.21
2019-01-28T08:45:36.777Z,71.78
2019-01-28T08:46:36.734Z,70.83
2019-01-28T08:47:36.697Z,70.55
2019-01-28T08:48:36.672Z,70.17
2019-01-28T08:49:36.626Z,70.45
2019-01-28T08:50:36.581Z,69.41
2019-01-28T08:51:36.544Z,69.22
2019-01-28T08:52:36.533Z,69.41
2019-01-28T08:53:36.469Z,69.41
2019-01-28T08:54:36.430Z,68.27
2019-01-28T08:55:36.394Z,68.46
2019-01-28T08:56:36.362Z,68.84
2019-01-28T08:57:36.309Z,69.98
2019-01-28T08:58:36.273Z,68.75
2019-01-28T08:59:36.240Z,69.13
2019-01-28T09:00:36.200Z,67.90
2019-01-28T09:01:36.165Z,69.13
2019-01-28T09:02:36.127Z,69.41
2019-01-28T09:03:36.092Z,68.08
2019-01-28T09:04:36.044Z,67.99
2019-01-28T09:05:36.004Z,67.80
2019-01-28T09:06:35.965Z,67.80
2019-01-28T09:07:35.935Z,68.18
2019-01-28T09:08:35.885Z,67.14
2019-01-28T09:09:35.855Z,66.00
2019-01-28T09:10:35.824Z,67.43
2019-01-28T09:11:35.773Z,67.05
2019-01-28T09:12:35.741Z,66.19
2019-01-28T09:13:35.701Z,66.57
2019-01-28T09:14:35.663Z,66.47
2019-01-28T09:15:35.623Z,65.44
2019-01-28T09:16:35.583Z,65.34
2019-01-28T09:17:35.547Z,64.39
2019-01-28T09:18:35.515Z,65.53
2019-01-28T09:19:35.470Z,64.01
2019-01-28T09:20:35.420Z,63.07
2019-01-28T09:21:35.390Z,61.83
2019-01-28T09:22:35.350Z,62.21
2019-01-28T09:23:35.314Z,62.97
2019-01-28T09:24:35.279Z,62.59
2019-01-28T09:25:35.229Z,62.50
2019-01-28T09:26:35.195Z,62.69
2019-01-28T09:27:35.157Z,62.02
2019-01-28T09:28:35.126Z,62.21
2019-01-28T09:29:35.081Z,61.55
2019-01-28T09:30:35.041Z,60.70
2019-01-28T09:31:34.999Z,60.80
2019-01-28T09:32:34.966Z,60.61
2019-01-28T09:33:34.921Z,60.99
2019-01-28T09:34:34.884Z,59.66
2019-01-28T09:35:34.859Z,59.66
2019-01-28T09:36:34.817Z,59.56
2019-01-28T09:37:34.771Z,59.38
2019-01-28T09:38:34.727Z,59.28
2019-01-28T09:39:34.687Z,59.75
2019-01-28T09:40:34.649Z,59.00
2019-01-28T09:41:35.708Z,59.28
2019-01-28T09:42:34.571Z,58.62
2019-01-28T09:43:34.537Z,58.52
2019-01-28T09:44:34.513Z,58.33
2019-01-28T09:45:34.465Z,59.28
2019-01-28T09:46:34.424Z,59.56
2019-01-28T09:47:34.382Z,59.75
2019-01-28T09:48:34.641Z,59.84
2019-01-28T09:49:34.317Z,59.38
2019-01-28T09:50:34.276Z,58.33
2019-01-28T09:51:34.233Z,58.33
2019-01-28T09:52:34.186Z,58.52
2019-01-28T09:53:34.158Z,58.71
2019-01-28T09:54:34.137Z,57.89
2019-01-28T09:55:34.076Z,58.52
2019-01-28T09:56:34.049Z,58.33
2019-01-28T09:57:33.997Z,58.07
2019-01-28T09:58:33.963Z,58.26
2019-01-28T09:59:33.930Z,58.36
2019-01-28T10:00:33.906Z,57.70
2019-01-28T10:01:33.849Z,58.26
2019-01-28T10:02:33.806Z,57.79
2019-01-28T10:03:33.768Z,57.23
2019-01-28T10:04:33.727Z,57.51
2019-01-28T10:05:33.697Z,56.85
2019-01-28T10:06:33.656Z,55.90
2019-01-28T10:07:33.619Z,55.71
2019-01-28T10:08:33.586Z,54.95
2019-01-28T10:09:33.546Z,54.86
2019-01-28T10:10:33.501Z,54.28
2019-01-28T10:11:33.459Z,54.67
2019-01-28T10:12:34.644Z,54.57
2019-01-28T10:13:33.380Z,54.76
2019-01-28T10:14:33.343Z,54.00
2019-01-28T10:15:33.309Z,53.81
2019-01-28T10:16:33.277Z,54.67
2019-01-28T10:17:33.286Z,54.19
2019-01-28T10:18:33.209Z,54.10
2019-01-28T10:19:33.174Z,54.38
2019-01-28T10:20:33.130Z,54.10
2019-01-28T10:21:33.078Z,54.76
2019-01-28T10:22:33.049Z,55.05
2019-01-28T10:23:33.023Z,55.43
2019-01-28T10:24:32.967Z,55.43
2019-01-28T10:25:32.918Z,55.62
2019-01-28T10:26:32.885Z,54.76
2019-01-28T10:27:32.843Z,54.38
2019-01-28T10:28:32.808Z,55.05
2019-01-28T10:29:32.778Z,54.86
2019-01-28T10:30:32.730Z,55.33
2019-01-28T10:31:32.705Z,54.57
2019-01-28T10:32:36.259Z,54.95
2019-01-28T10:33:32.623Z,54.57
2019-01-28T10:34:32.576Z,55.90
2019-01-28T10:35:32.551Z,55.62
2019-01-28T10:36:34.195Z,54.86
2019-01-28T10:37:32.465Z,54.76
2019-01-28T10:38:32.440Z,54.76
2019-01-28T10:39:32.429Z,55.05
2019-01-28T10:40:32.359Z,55.43
2019-01-28T10:41:32.310Z,54.76
2019-01-28T10:42:32.273Z,54.76
2019-01-28T10:43:32.230Z,53.63
2019-01-28T10:44:32.197Z,53.53
2019-01-28T10:45:32.155Z,53.06
2019-01-28T10:46:32.117Z,53.25
2019-01-28T10:47:32.093Z,52.68
2019-01-28T10:48:32.054Z,53.63
2019-01-28T10:49:32.009Z,53.06
2019-01-28T10:50:31.983Z,52.96
2019-01-28T10:51:31.933Z,53.72
2019-01-28T10:52:31.900Z,53.34
2019-01-28T10:53:31.858Z,52.11
2019-01-28T10:54:31.838Z,52.01
2019-01-28T10:55:31.769Z,52.68
2019-01-28T10:56:31.734Z,52.48
2019-01-28T10:57:31.705Z,51.73
2019-01-28T10:58:31.660Z,52.11
2019-01-28T10:59:31.621Z,52.11
2019-01-28T11:00:31.583Z,51.64
2019-01-28T11:01:31.549Z,52.96
2019-01-28T11:02:31.499Z,53.25
2019-01-28T11:03:31.464Z,52.29
2019-01-28T11:04:31.466Z,52.48
2019-01-28T11:05:33.179Z,51.07
2019-01-28T11:06:31.343Z,51.54
2019-01-28T11:07:31.317Z,51.82
2019-01-28T11:08:31.277Z,51.45
2019-01-28T11:09:31.286Z,51.16
2019-01-28T11:10:31.216Z,52.11
2019-01-28T11:11:31.222Z,51.82
2019-01-28T11:12:31.200Z,50.97
2019-01-28T11:13:31.083Z,51.64
2019-01-28T11:14:31.168Z,51.07
2019-01-28T11:15:31.011Z,51.16
2019-01-28T11:16:31.020Z,50.31
2019-01-28T11:17:30.968Z,50.02
2019-01-28T11:18:30.950Z,50.02
2019-01-28T11:19:32.256Z,49.84
2019-01-28T11:20:30.865Z,49.74
2019-01-28T11:21:30.773Z,50.12
2019-01-28T11:22:30.878Z,50.49
2019-01-28T11:23:32.220Z,50.02
2019-01-28T11:24:30.691Z,49.74
2019-01-28T11:25:30.764Z,49.84
2019-01-28T11:26:30.642Z,49.84
2019-01-28T11:27:30.560Z,50.12
2019-01-28T11:28:30.671Z,50.88
2019-01-28T11:29:30.470Z,50.88
2019-01-28T11:30:30.472Z,51.64
2019-01-28T11:31:30.395Z,51.16
2019-01-28T11:32:30.366Z,49.84
2019-01-28T11:33:30.354Z,49.55
2019-01-28T11:34:30.306Z,50.02
2019-01-28T11:35:30.354Z,50.02
2019-01-28T11:36:30.339Z,50.02
2019-01-28T11:37:30.167Z,50.97
2019-01-28T11:38:30.218Z,50.59
2019-01-28T11:39:30.220Z,52.58
2019-01-28T11:40:30.186Z,52.11
2019-01-28T11:41:30.116Z,52.11
2019-01-28T11:42:30.094Z,52.01
2019-01-28T11:43:30.079Z,52.96
2019-01-28T11:44:29.910Z,53.15
2019-01-28T11:45:30.078Z,52.39
2019-01-28T11:46:29.983Z,55.05
2019-01-28T11:47:29.859Z,56.09
2019-01-28T11:48:29.842Z,55.99
2019-01-28T11:49:29.712Z,56.75
2019-01-28T11:50:29.680Z,56.85
2019-01-28T11:51:29.636Z,55.80
2019-01-28T11:52:29.587Z,55.43
2019-01-28T11:53:29.566Z,57.04
2019-01-28T11:54:29.516Z,60.73
2019-01-28T11:55:29.477Z,58.58
2019-01-28T11:56:29.448Z,59.12
2019-01-28T11:57:29.392Z,60.73
2019-01-28T11:58:29.382Z,62.15
2019-01-28T11:59:29.343Z,60.47
2019-01-28T12:00:29.289Z,63.51
2019-01-28T12:01:29.258Z,64.65
2019-01-28T12:02:34.199Z,63.42
2019-01-28T12:03:29.169Z,61.90
2019-01-28T12:04:29.129Z,63.51
2019-01-28T12:05:29.092Z,62.28
2019-01-28T12:06:29.078Z,63.70
2019-01-28T12:07:29.007Z,62.66
2019-01-28T12:08:28.981Z,63.95
2019-01-28T12:09:28.943Z,65.88
2019-01-28T12:10:28.898Z,64.84
2019-01-28T12:11:28.867Z,62.94
2019-01-28T12:12:28.831Z,65.31
2019-01-28T12:13:28.783Z,62.18
2019-01-28T12:14:28.743Z,61.33
2019-01-28T12:15:28.719Z,60.76
2019-01-28T12:16:28.680Z,63.01
2019-01-28T12:17:28.634Z,61.33
2019-01-28T12:18:28.597Z,61.99
2019-01-28T12:19:28.554Z,60.38
2019-01-28T12:20:28.529Z,60.95
2019-01-28T12:21:28.482Z,62.08
2019-01-28T12:22:28.477Z,61.99
2019-01-28T12:23:28.410Z,61.71
2019-01-28T12:24:28.373Z,61.61
2019-01-28T12:25:28.334Z,61.61
2019-01-28T12:26:28.293Z,62.18
2019-01-28T12:27:28.250Z,60.95
2019-01-28T12:28:28.219Z,61.61
2019-01-28T12:29:28.175Z,61.43
2019-01-28T12:30:28.148Z,60.95
2019-01-28T12:31:28.103Z,59.91
2019-01-28T12:32:28.065Z,60.67
2019-01-28T12:33:28.019Z,60.86
2019-01-28T12:34:27.991Z,61.61
2019-01-28T12:35:27.948Z,61.71
2019-01-28T12:36:27.909Z,61.80
2019-01-28T12:37:27.870Z,62.18
2019-01-28T12:38:27.849Z,63.23
2019-01-28T12:39:27.808Z,64.08
2019-01-28T12:40:27.756Z,61.99
2019-01-28T12:41:27.719Z,64.74
2019-01-28T12:42:27.684Z,62.75
2019-01-28T12:43:27.794Z,62.56
2019-01-28T12:44:27.606Z,64.74
2019-01-28T12:45:27.636Z,62.85
2019-01-28T12:46:27.534Z,61.61
2019-01-28T12:47:27.530Z,63.89
2019-01-28T12:48:36.980Z,63.23
2019-01-28T12:50:31.857Z,64.36
2019-01-28T12:51:31.792Z,65.12
2019-01-28T12:52:31.753Z,63.79
2019-01-28T12:53:31.720Z,60.47
2019-01-28T12:54:31.664Z,62.62
2019-01-28T12:55:31.636Z,63.60